Terminal Aerodrome Forecast
Issued by NWS

Home | Current Version | Previous Version | Text Only | Print | Product List | Glossary On
Versions: 1 2 3 4 5 6 7 8 9 10 11 12 13 14 15 16 17 18
700
FTUS41 KPBZ 061132
TAFLBE
TAF
KLBE 061132Z 0612/0712 21006KT P6SM BKN060
     FM061600 24010KT P6SM SCT060 BKN150
     FM070100 VRB04KT P6SM SCT200=

USA.gov is the U.S. government's official web portal to all federal, state and local government web resources and services.